sensor_id;sensor_type;location;lat;lon;timestamp;P1;durP1;ratioP1;P2;durP2;ratioP2
40913;SDS011;26638;50.990;4.676;2024-02-14T13:57:35;14.98;;;6.20;;
40913;SDS011;26638;50.990;4.676;2024-02-14T14:00:05;11.13;;;5.68;;
40913;SDS011;26638;50.990;4.676;2024-02-14T14:24:39;10.43;;;4.82;;
40913;SDS011;26638;50.990;4.676;2024-02-14T14:27:05;9.57;;;4.93;;
40913;SDS011;26638;50.990;4.676;2024-02-14T14:51:35;9.70;;;4.90;;
40913;SDS011;26638;50.990;4.676;2024-02-14T16:15:09;9.77;;;4.55;;
40913;SDS011;26638;50.990;4.676;2024-02-14T16:17:36;13.32;;;5.30;;
40913;SDS011;26638;50.990;4.676;2024-02-14T16:20:02;12.38;;;5.35;;
40913;SDS011;26638;50.990;4.676;2024-02-14T16:22:31;14.30;;;6.13;;
40913;SDS011;26638;50.990;4.676;2024-02-14T16:27:23;11.32;;;4.63;;
40913;SDS011;26638;50.990;4.676;2024-02-14T16:29:49;13.75;;;4.30;;
40913;SDS011;26638;50.990;4.676;2024-02-14T16:44:25;10.40;;;4.33;;
40913;SDS011;26638;50.990;4.676;2024-02-14T16:46:53;12.68;;;4.75;;
40913;SDS011;26638;50.990;4.676;2024-02-14T16:49:19;9.98;;;4.25;;
40913;SDS011;26638;50.990;4.676;2024-02-14T16:51:45;8.30;;;4.18;;
40913;SDS011;26638;50.990;4.676;2024-02-14T16:54:10;13.10;;;5.05;;
40913;SDS011;26638;50.990;4.676;2024-02-14T16:56:36;16.67;;;4.47;;
40913;SDS011;26638;50.990;4.676;2024-02-14T16:59:02;11.65;;;4.57;;
40913;SDS011;26638;50.990;4.676;2024-02-14T17:01:27;14.13;;;4.85;;
40913;SDS011;26638;50.990;4.676;2024-02-14T17:03:54;12.40;;;4.55;;
40913;SDS011;26638;50.990;4.676;2024-02-14T17:06:23;16.95;;;4.82;;
40913;SDS011;26638;50.990;4.676;2024-02-14T17:08:50;18.58;;;4.90;;
40913;SDS011;26638;50.990;4.676;2024-02-14T17:11:15;12.50;;;5.55;;
40913;SDS011;26638;50.990;4.676;2024-02-14T17:13:44;15.98;;;5.40;;
40913;SDS011;26638;50.990;4.676;2024-02-14T17:16:10;14.48;;;6.07;;
40913;SDS011;26638;50.990;4.676;2024-02-14T17:18:36;17.90;;;5.88;;
40913;SDS011;26638;50.990;4.676;2024-02-14T17:21:02;14.48;;;4.95;;
40913;SDS011;26638;50.990;4.676;2024-02-14T17:23:29;14.63;;;5.33;;
40913;SDS011;26638;50.990;4.676;2024-02-14T17:25:54;14.85;;;4.75;;
40913;SDS011;26638;50.990;4.676;2024-02-14T17:43:02;18.10;;;5.20;;
40913;SDS011;26638;50.990;4.676;2024-02-14T17:45:28;10.85;;;4.65;;
40913;SDS011;26638;50.990;4.676;2024-02-14T17:47:53;11.25;;;4.97;;
40913;SDS011;26638;50.990;4.676;2024-02-14T17:50:19;14.93;;;4.75;;
40913;SDS011;26638;50.990;4.676;2024-02-14T17:52:45;14.52;;;5.35;;
40913;SDS011;26638;50.990;4.676;2024-02-14T17:55:10;16.15;;;5.25;;
40913;SDS011;26638;50.990;4.676;2024-02-14T17:57:36;12.48;;;4.80;;
40913;SDS011;26638;50.990;4.676;2024-02-14T18:00:03;20.90;;;5.82;;
40913;SDS011;26638;50.990;4.676;2024-02-14T19:08:07;26.77;;;7.05;;
40913;SDS011;26638;50.990;4.676;2024-02-14T19:10:33;23.92;;;7.40;;
40913;SDS011;26638;50.990;4.676;2024-02-14T19:12:59;23.27;;;7.78;;
40913;SDS011;26638;50.990;4.676;2024-02-14T19:15:25;23.27;;;7.78;;
40913;SDS011;26638;50.990;4.676;2024-02-14T19:17:51;20.42;;;7.60;;
40913;SDS011;26638;50.990;4.676;2024-02-14T19:20:17;23.25;;;7.93;;
40913;SDS011;26638;50.990;4.676;2024-02-14T19:22:43;27.83;;;8.88;;
40913;SDS011;26638;50.990;4.676;2024-02-14T19:25:10;29.40;;;8.18;;
40913;SDS011;26638;50.990;4.676;2024-02-14T19:27:35;22.67;;;8.40;;
40913;SDS011;26638;50.990;4.676;2024-02-14T19:30:02;27.83;;;7.75;;
40913;SDS011;26638;50.990;4.676;2024-02-14T19:32:29;26.67;;;8.38;;
40913;SDS011;26638;50.990;4.676;2024-02-14T19:34:58;21.77;;;7.35;;
40913;SDS011;26638;50.990;4.676;2024-02-14T19:37:24;24.95;;;8.13;;
40913;SDS011;26638;50.990;4.676;2024-02-14T19:39:54;28.30;;;8.63;;
40913;SDS011;26638;50.990;4.676;2024-02-14T19:54:29;16.85;;;6.93;;
40913;SDS011;26638;50.990;4.676;2024-02-14T20:11:32;23.33;;;10.18;;
40913;SDS011;26638;50.990;4.676;2024-02-14T20:13:59;34.70;;;11.90;;
40913;SDS011;26638;50.990;4.676;2024-02-14T20:18:58;35.38;;;11.77;;
40913;SDS011;26638;50.990;4.676;2024-02-14T20:21:24;30.60;;;13.93;;
40913;SDS011;26638;50.990;4.676;2024-02-14T20:31:08;43.58;;;18.33;;
40913;SDS011;26638;50.990;4.676;2024-02-14T20:33:35;47.00;;;20.02;;
40913;SDS011;26638;50.990;4.676;2024-02-14T20:36:00;49.30;;;21.70;;
40913;SDS011;26638;50.990;4.676;2024-02-14T21:53:55;22.00;;;10.88;;
40913;SDS011;26638;50.990;4.676;2024-02-14T21:56:22;27.38;;;9.63;;
40913;SDS011;26638;50.990;4.676;2024-02-14T21:58:47;24.77;;;11.13;;
40913;SDS011;26638;50.990;4.676;2024-02-14T22:01:13;28.80;;;10.90;;
40913;SDS011;26638;50.990;4.676;2024-02-14T22:03:39;29.60;;;10.73;;
40913;SDS011;26638;50.990;4.676;2024-02-14T22:06:05;23.77;;;10.80;;
40913;SDS011;26638;50.990;4.676;2024-02-14T22:08:31;32.38;;;11.38;;
40913;SDS011;26638;50.990;4.676;2024-02-14T22:10:56;27.95;;;11.32;;
40913;SDS011;26638;50.990;4.676;2024-02-14T22:18:15;32.75;;;13.13;;
40913;SDS011;26638;50.990;4.676;2024-02-14T22:20:44;31.80;;;13.25;;
40913;SDS011;26638;50.990;4.676;2024-02-14T22:23:10;34.05;;;12.68;;
40913;SDS011;26638;50.990;4.676;2024-02-14T22:25:36;28.40;;;13.40;;
40913;SDS011;26638;50.990;4.676;2024-02-14T22:28:02;32.72;;;12.52;;
40913;SDS011;26638;50.990;4.676;2024-02-14T22:30:31;29.42;;;14.02;;
40913;SDS011;26638;50.990;4.676;2024-02-14T22:32:57;31.02;;;13.75;;
40913;SDS011;26638;50.990;4.676;2024-02-14T22:35:26;38.08;;;12.90;;
40913;SDS011;26638;50.990;4.676;2024-02-14T22:37:52;31.45;;;12.95;;
40913;SDS011;26638;50.990;4.676;2024-02-14T22:40:17;34.17;;;12.73;;
40913;SDS011;26638;50.990;4.676;2024-02-14T22:42:43;33.58;;;13.32;;
40913;SDS011;26638;50.990;4.676;2024-02-14T22:45:12;24.40;;;12.15;;
40913;SDS011;26638;50.990;4.676;2024-02-14T22:47:38;30.02;;;12.52;;
40913;SDS011;26638;50.990;4.676;2024-02-14T22:50:04;33.40;;;13.23;;
40913;SDS011;26638;50.990;4.676;2024-02-14T22:52:33;32.92;;;12.77;;
40913;SDS011;26638;50.990;4.676;2024-02-14T22:54:59;35.13;;;12.35;;
40913;SDS011;26638;50.990;4.676;2024-02-14T22:57:24;31.93;;;12.70;;
40913;SDS011;26638;50.990;4.676;2024-02-14T22:59:50;30.23;;;12.02;;
40913;SDS011;26638;50.990;4.676;2024-02-14T23:02:16;28.75;;;12.27;;
40913;SDS011;26638;50.990;4.676;2024-02-14T23:04:43;26.50;;;10.68;;
40913;SDS011;26638;50.990;4.676;2024-02-14T23:33:52;21.52;;;7.63;;
